Time;durP1;ratioP1;P1;durP2;ratioP2;P2;SDS_P1;SDS_P2;PMS_P1;PMS_P2;Temp;Humidity;BMP_temperature;BMP_pressure;BME280_temperature;BME280_humidity;BME280_pressure;Samples;Min_cycle;Max_cycle;Signal;HPM_P1;HPM_P2
2023/11/26 00:00:26;;;;;;;1.50;1.13;;;;;;;-0.83;100.00;90405.50;5067287;28;20044;-77
2023/11/26 00:02:53;;;;;;;1.33;0.80;;;;;;;-0.96;100.00;90405.66;5068796;28;20097;-78
2023/11/26 00:05:22;;;;;;;1.25;0.85;;;;;;;-0.16;100.00;90419.09;5069832;28;20349;-79
2023/11/26 00:07:49;;;;;;;2.35;1.20;;;;;;;-0.17;100.00;90429.41;5068013;28;20036;-78
2023/11/26 00:10:16;;;;;;;1.95;1.10;;;;;;;-0.20;100.00;90425.53;5071948;28;20040;-77
2023/11/26 00:12:43;;;;;;;1.35;0.75;;;;;;;-1.01;100.00;90428.19;5067849;28;20054;-78
2023/11/26 00:15:13;;;;;;;1.65;0.90;;;;;;;-0.82;100.00;90439.03;5071891;28;20075;-80
2023/11/26 00:17:40;;;;;;;1.20;0.75;;;;;;;-0.84;100.00;90434.19;5068334;28;20071;-80
2023/11/26 00:20:09;;;;;;;2.35;1.20;;;;;;;-0.78;100.00;90441.91;5071075;28;20048;-80
2023/11/26 00:22:38;;;;;;;2.47;1.00;;;;;;;-1.24;100.00;90414.44;5074308;28;20049;-79
2023/11/26 00:25:06;;;;;;;1.52;0.93;;;;;;;-0.93;100.00;90448.03;5072347;28;20139;-80
2023/11/26 00:27:33;;;;;;;1.20;0.77;;;;;;;-1.05;100.00;90449.72;5074818;28;20045;-78
2023/11/26 00:30:01;;;;;;;2.08;1.10;;;;;;;-1.10;100.00;90451.09;5073603;28;20055;-80
2023/11/26 00:32:28;;;;;;;1.90;1.13;;;;;;;-1.02;100.00;90441.75;5078264;28;20044;-79
2023/11/26 00:34:55;;;;;;;1.85;1.00;;;;;;;-0.93;100.00;90452.34;5073782;28;21056;-80
2023/11/26 00:37:22;;;;;;;1.48;0.90;;;;;;;-0.70;100.00;90449.97;5071987;28;20056;-80
2023/11/26 00:39:50;;;;;;;1.60;1.00;;;;;;;-0.99;100.00;90458.97;5070803;28;20041;-78
2023/11/26 00:42:17;;;;;;;1.50;1.08;;;;;;;-1.12;100.00;90415.28;5076397;28;20052;-80
2023/11/26 00:44:44;;;;;;;1.65;1.10;;;;;;;-0.97;100.00;90452.75;5072219;28;20127;-80
2023/11/26 00:47:11;;;;;;;3.20;1.63;;;;;;;-1.03;100.00;90447.78;5073089;28;20132;-79
2023/11/26 00:49:38;;;;;;;1.20;0.70;;;;;;;-0.86;100.00;90453.81;5071261;28;20059;-80
2023/11/26 00:52:05;;;;;;;1.50;1.00;;;;;;;-0.67;100.00;90456.34;5070493;28;20124;-80
2023/11/26 00:54:32;;;;;;;2.85;1.52;;;;;;;-1.08;100.00;90453.41;5069266;28;20050;-79
2023/11/26 00:57:01;;;;;;;6.97;2.80;;;;;;;0.20;100.00;90467.16;5069993;28;20135;-79
2023/11/26 00:59:27;;;;;;;1.63;1.17;;;;;;;-0.45;100.00;90473.56;5069515;28;20095;-80
2023/11/26 01:01:54;;;;;;;1.80;1.20;;;;;;;-0.61;100.00;90478.19;5071844;28;20123;-80
2023/11/26 01:04:21;;;;;;;1.83;1.35;;;;;;;-0.59;100.00;90483.81;5076350;28;20903;-81
2023/11/26 01:06:49;;;;;;;4.05;1.90;;;;;;;-0.62;100.00;90494.28;5070268;28;20076;-78
2023/11/26 01:09:16;;;;;;;1.40;0.90;;;;;;;-0.47;100.00;90501.50;5071832;28;20044;-78
2023/11/26 01:11:43;;;;;;;1.52;1.23;;;;;;;-0.63;100.00;90509.63;5079600;28;20135;-78
2023/11/26 01:14:12;;;;;;;1.70;1.10;;;;;;;-0.51;100.00;90514.75;5070574;28;20052;-77
2023/11/26 01:16:40;;;;;;;2.15;1.30;;;;;;;-0.62;100.00;90506.13;5072631;28;20061;-78
2023/11/26 01:19:07;;;;;;;1.63;1.13;;;;;;;-0.02;100.00;90505.50;5070217;28;20662;-79
2023/11/26 01:21:34;;;;;;;1.92;1.40;;;;;;;-0.05;100.00;90513.47;5071112;28;20048;-78
2023/11/26 01:24:02;;;;;;;1.65;1.25;;;;;;;-0.46;100.00;90512.38;5069526;28;20052;-80
2023/11/26 01:26:29;;;;;;;2.20;1.35;;;;;;;-0.32;100.00;90521.34;5077435;28;20641;-80
2023/11/26 01:28:56;;;;;;;1.77;1.30;;;;;;;-0.65;100.00;90524.94;5071367;28;20059;-81
2023/11/26 01:31:24;;;;;;;1.63;1.15;;;;;;;-0.62;100.00;90519.50;5072625;28;20055;-79
2023/11/26 01:33:51;;;;;;;1.77;1.50;;;;;;;-0.06;100.00;90533.88;5069300;28;20056;-80
2023/11/26 01:36:18;;;;;;;1.73;1.20;;;;;;;-0.11;100.00;90529.47;5068979;28;20044;-78
2023/11/26 01:38:45;;;;;;;2.00;1.25;;;;;;;-1.01;100.00;90536.50;5067894;28;20056;-77
2023/11/26 01:41:13;;;;;;;1.77;1.30;;;;;;;-0.96;100.00;90552.53;5069978;28;20052;-78
2023/11/26 01:43:40;;;;;;;1.70;1.23;;;;;;;-0.94;100.00;90547.31;5072044;28;20440;-78
2023/11/26 01:46:10;;;;;;;2.08;1.60;;;;;;;-1.10;100.00;90551.88;5079153;28;20044;-79
2023/11/26 01:48:39;;;;;;;1.30;0.90;;;;;;;-1.36;100.00;90527.66;5082044;28;20051;-79
2023/11/26 01:51:09;;;;;;;1.77;1.10;;;;;;;-1.17;100.00;90560.47;5070508;28;20062;-77
2023/11/26 01:53:37;;;;;;;2.03;1.33;;;;;;;-1.32;100.00;90565.78;5070299;28;20059;-77
2023/11/26 01:56:05;;;;;;;1.60;1.50;;;;;;;-0.88;100.00;90569.16;5069723;28;20052;-76
2023/11/26 01:58:32;;;;;;;1.83;1.25;;;;;;;-1.37;100.00;90568.91;5071624;28;20043;-77
2023/11/26 02:00:59;;;;;;;1.90;1.30;;;;;;;-1.59;100.00;90573.50;5077831;28;20052;-77
2023/11/26 02:03:26;;;;;;;2.25;1.33;;;;;;;-1.65;100.00;90587.66;5070436;28;20070;-77
2023/11/26 02:05:55;;;;;;;2.10;1.30;;;;;;;-1.78;100.00;90565.84;5068771;28;20048;-77
2023/11/26 02:08:22;;;;;;;1.85;1.40;;;;;;;-1.77;100.00;90578.22;5067966;28;20051;-77
2023/11/26 02:10:49;;;;;;;2.20;1.40;;;;;;;-1.31;100.00;90590.78;5068452;28;20051;-77
2023/11/26 02:13:16;;;;;;;2.33;1.50;;;;;;;-1.28;100.00;90597.16;5074613;28;20415;-77
2023/11/26 02:15:44;;;;;;;2.45;1.50;;;;;;;-1.45;100.00;90590.06;5075516;28;20058;-77
2023/11/26 02:18:10;;;;;;;2.72;1.67;;;;;;;-1.48;100.00;90600.56;5068127;28;20051;-76
2023/11/26 02:20:37;;;;;;;1.77;1.50;;;;;;;-1.81;100.00;90609.78;5068041;28;20056;-77
2023/11/26 02:23:06;;;;;;;2.30;1.63;;;;;;;-1.64;100.00;90609.34;5069167;28;20048;-76
2023/11/26 02:25:34;;;;;;;2.10;1.60;;;;;;;-1.56;100.00;90609.13;5068113;28;20047;-77
2023/11/26 02:28:01;;;;;;;2.25;1.50;;;;;;;-1.79;100.00;90612.09;5071562;28;20885;-77
2023/11/26 02:30:29;;;;;;;2.40;1.70;;;;;;;-1.70;100.00;90612.66;5070478;28;20046;-77
2023/11/26 02:32:55;;;;;;;2.30;1.55;;;;;;;-1.73;100.00;90620.63;5073018;28;20056;-78
2023/11/26 02:35:22;;;;;;;1.73;1.40;;;;;;;-1.61;100.00;90629.09;5069246;28;20490;-78
2023/11/26 02:37:49;;;;;;;2.97;1.95;;;;;;;-1.62;100.00;90632.56;5074775;28;20051;-77
2023/11/26 02:40:16;;;;;;;1.95;1.50;;;;;;;-1.71;100.00;90628.72;5069891;28;20390;-77
2023/11/26 02:42:45;;;;;;;2.33;1.40;;;;;;;-1.57;100.00;90647.06;5073556;28;20050;-77
2023/11/26 02:45:12;;;;;;;1.98;1.50;;;;;;;-1.90;100.00;90646.22;5074640;28;20071;-77
2023/11/26 02:47:39;;;;;;;2.20;1.50;;;;;;;-2.03;100.00;90610.03;5075950;28;20048;-77
2023/11/26 02:50:08;;;;;;;2.10;1.45;;;;;;;-1.67;100.00;90660.84;5071233;28;20095;-78
2023/11/26 02:52:35;;;;;;;3.13;2.03;;;;;;;-1.79;100.00;90673.28;5072333;28;20048;-77
2023/11/26 02:55:02;;;;;;;2.53;1.60;;;;;;;-1.94;100.00;90670.22;5071941;28;20107;-77
2023/11/26 02:57:29;;;;;;;2.38;1.73;;;;;;;-1.82;100.00;90668.63;5067926;28;20421;-77
2023/11/26 03:00:00;;;;;;;2.35;1.50;;;;;;;-1.81;100.00;90665.16;5071889;28;20052;-77
2023/11/26 03:02:30;;;;;;;2.58;1.73;;;;;;;-1.62;100.00;90687.94;5072877;28;20048;-77
2023/11/26 03:05:05;;;;;;;2.58;1.80;;;;;;;-1.68;100.00;90697.06;5077545;28;20496;-76
2023/11/26 03:07:34;;;;;;;2.35;1.70;;;;;;;-1.69;100.00;90689.69;5067827;28;20113;-77
2023/11/26 03:13:07;;;;;;;2.53;2.10;;;;;;;-1.68;100.00;90708.84;5070996;28;20063;-77
2023/11/26 03:15:37;;;;;;;3.33;2.60;;;;;;;-1.86;100.00;90702.72;5068674;28;20892;-80
2023/11/26 03:18:04;;;;;;;2.92;2.30;;;;;;;-1.86;100.00;90696.91;5067833;28;20079;-78
2023/11/26 03:20:32;;;;;;;3.72;2.75;;;;;;;-1.86;100.00;90730.38;5071661;28;20048;-77
2023/11/26 03:22:59;;;;;;;3.15;2.38;;;;;;;-1.81;100.00;90709.69;5072634;28;20052;-78
2023/11/26 03:25:26;;;;;;;3.53;2.40;;;;;;;-1.73;100.00;90729.59;5068679;28;20068;-78
2023/11/26 03:27:54;;;;;;;3.95;3.05;;;;;;;-1.83;100.00;90724.97;5070029;28;20051;-77
2023/11/26 03:30:21;;;;;;;3.47;2.70;;;;;;;-1.73;100.00;90748.97;5071225;28;20493;-77
2023/11/26 03:32:49;;;;;;;3.55;2.97;;;;;;;-1.56;100.00;90740.03;5072413;28;20048;-77
2023/11/26 03:35:16;;;;;;;5.00;3.60;;;;;;;-1.46;100.00;90759.75;5071378;28;20529;-77
2023/11/26 03:37:43;;;;;;;4.13;3.10;;;;;;;-1.61;100.00;90757.47;5072234;28;20131;-77
2023/11/26 03:40:12;;;;;;;4.82;3.58;;;;;;;-1.58;100.00;90766.38;5072775;28;20091;-78
2023/11/26 03:42:39;;;;;;;3.90;3.40;;;;;;;-1.40;100.00;90770.75;5067498;28;20045;-77
2023/11/26 03:45:07;;;;;;;4.65;3.75;;;;;;;-1.52;100.00;90755.50;5069132;28;20094;-77
2023/11/26 03:47:35;;;;;;;5.18;4.32;;;;;;;-1.44;100.00;90777.19;5067279;28;20110;-78
2023/11/26 03:50:08;;;;;;;5.97;4.63;;;;;;;-1.30;100.00;90782.97;5071985;28;20557;-77
2023/11/26 03:52:35;;;;;;;5.95;4.50;;;;;;;-1.47;100.00;90801.00;5074396;28;20047;-77
2023/11/26 03:55:02;;;;;;;5.90;4.85;;;;;;;-1.43;100.00;90806.41;5070778;28;20876;-76
2023/11/26 03:57:29;;;;;;;6.32;5.10;;;;;;;-1.52;100.00;90811.66;5080909;28;20567;-76
2023/11/26 03:59:57;;;;;;;6.13;4.78;;;;;;;-1.56;100.00;90820.59;5070739;28;20059;-76
2023/11/26 04:02:24;;;;;;;6.07;4.72;;;;;;;-1.55;100.00;90828.91;5074582;28;20121;-76
2023/11/26 04:04:52;;;;;;;6.97;5.20;;;;;;;-1.42;100.00;90820.56;5071624;28;20060;-76
2023/11/26 04:07:20;;;;;;;8.00;4.95;;;;;;;-1.46;100.00;90827.72;5071359;28;20049;-77
2023/11/26 04:09:48;;;;;;;6.13;4.78;;;;;;;-1.22;100.00;90843.19;5073141;28;20496;-76
2023/11/26 04:12:15;;;;;;;6.95;5.60;;;;;;;-1.32;100.00;90847.84;5072364;28;20062;-77
2023/11/26 04:14:54;;;;;;;6.70;5.60;;;;;;;-1.38;100.00;90856.97;5077125;28;20092;-77
2023/11/26 04:17:21;;;;;;;8.93;6.50;;;;;;;-1.57;100.00;90861.81;5076877;28;20052;-77
2023/11/26 04:19:48;;;;;;;6.88;5.53;;;;;;;-1.50;100.00;90854.25;5077412;28;20143;-77
2023/11/26 04:22:15;;;;;;;9.05;6.18;;;;;;;-1.49;100.00;90874.22;5074673;28;20055;-77
2023/11/26 04:24:43;;;;;;;7.47;6.47;;;;;;;-1.48;100.00;90872.50;5071473;28;20703;-78
2023/11/26 04:27:10;;;;;;;10.38;7.72;;;;;;;-1.67;100.00;90896.69;5074813;28;20077;-77
2023/11/26 04:29:37;;;;;;;10.10;8.73;;;;;;;-1.67;100.00;90894.94;5079386;28;20085;-77
2023/11/26 04:32:05;;;;;;;8.20;7.32;;;;;;;-1.74;100.00;90886.59;5071287;28;20048;-77
2023/11/26 04:34:32;;;;;;;7.10;5.40;;;;;;;-1.90;100.00;90912.94;5085787;28;20048;-77
2023/11/26 04:36:59;;;;;;;7.53;5.85;;;;;;;-1.61;100.00;90924.38;5073486;28;20171;-77
2023/11/26 04:39:26;;;;;;;15.02;10.13;;;;;;;-1.47;100.00;90926.91;5074455;28;20052;-77
2023/11/26 04:41:54;;;;;;;7.38;5.95;;;;;;;-1.71;100.00;90918.16;5070551;28;20041;-77
2023/11/26 04:44:21;;;;;;;7.70;6.72;;;;;;;-1.62;100.00;90932.88;5070784;28;20052;-78
2023/11/26 04:46:49;;;;;;;7.45;6.45;;;;;;;-1.57;100.00;90942.38;5078175;28;20553;-78
2023/11/26 04:49:17;;;;;;;7.75;6.55;;;;;;;-2.04;100.00;90950.63;5071089;28;20159;-76
2023/11/26 04:51:45;;;;;;;7.13;5.50;;;;;;;-2.20;100.00;90961.81;5069612;28;20660;-76
2023/11/26 04:54:12;;;;;;;7.90;6.40;;;;;;;-2.20;100.00;90971.09;5070093;28;20055;-75
2023/11/26 04:56:39;;;;;;;6.88;5.72;;;;;;;-2.10;100.00;90961.44;5078259;28;20064;-76
2023/11/26 04:59:08;;;;;;;8.48;6.32;;;;;;;-1.97;100.00;90970.00;5074527;28;20203;-77
2023/11/26 05:01:38;;;;;;;7.68;5.60;;;;;;;-1.97;100.00;90985.09;5076610;28;20055;-76
2023/11/26 05:04:05;;;;;;;7.88;5.75;;;;;;;-1.90;100.00;90986.66;5070710;28;20130;-76
2023/11/26 05:06:32;;;;;;;8.68;6.43;;;;;;;-1.78;100.00;91007.03;5073453;28;20056;-76
2023/11/26 05:08:59;;;;;;;8.35;5.80;;;;;;;-1.86;100.00;91026.56;5077007;28;20059;-76
2023/11/26 05:11:27;;;;;;;7.18;6.05;;;;;;;-1.83;100.00;91006.81;5074043;28;20056;-77
2023/11/26 05:13:54;;;;;;;6.15;5.55;;;;;;;-1.94;100.00;91020.72;5074258;28;20425;-76
2023/11/26 05:16:22;;;;;;;6.97;5.88;;;;;;;-1.69;100.00;91042.09;5073439;28;20048;-76
2023/11/26 05:18:49;;;;;;;6.22;5.18;;;;;;;-1.72;100.00;91024.84;5074084;28;20048;-77
2023/11/26 05:21:17;;;;;;;5.68;4.50;;;;;;;-2.42;100.00;90993.81;5072034;28;20053;-75
2023/11/26 05:23:44;;;;;;;5.40;4.50;;;;;;;-2.23;100.00;91067.03;5074309;28;20036;-75
2023/11/26 05:26:14;;;;;;;5.57;4.53;;;;;;;-3.01;100.00;90953.84;5073696;28;20570;-76
2023/11/26 05:28:40;;;;;;;6.53;5.25;;;;;;;-2.13;100.00;91084.31;5072596;28;20056;-76
2023/11/26 05:31:08;;;;;;;6.72;4.47;;;;;;;-2.31;100.00;91085.56;5074860;28;20071;-75
2023/11/26 05:33:37;;;;;;;4.80;3.90;;;;;;;-2.50;100.00;91092.00;5074172;28;20048;-75
2023/11/26 05:36:05;;;;;;;5.82;3.72;;;;;;;-2.43;100.00;91112.94;5074085;28;20054;-76
2023/11/26 05:38:32;;;;;;;5.20;4.05;;;;;;;-2.36;100.00;91118.03;5076305;28;20045;-75
2023/11/26 05:40:59;;;;;;;4.95;3.95;;;;;;;-2.76;100.00;91123.53;5072500;28;20425;-75
2023/11/26 05:43:27;;;;;;;5.20;3.70;;;;;;;-2.61;100.00;91108.34;5072674;28;20067;-75
2023/11/26 05:45:54;;;;;;;10.15;5.63;;;;;;;-2.32;100.00;91136.81;5071078;28;20135;-75
2023/11/26 05:48:21;;;;;;;4.30;3.20;;;;;;;-2.40;100.00;91152.03;5072186;28;20502;-75
2023/11/26 05:50:49;;;;;;;4.07;3.33;;;;;;;-2.05;100.00;91165.44;5071210;28;20048;-75
2023/11/26 05:53:18;;;;;;;5.13;3.42;;;;;;;-2.18;100.00;91177.94;5071741;28;20498;-75
2023/11/26 05:55:45;;;;;;;5.68;3.83;;;;;;;-2.17;100.00;91192.06;5075469;28;20044;-75
2023/11/26 05:58:12;;;;;;;7.28;4.10;;;;;;;-2.19;100.00;91188.94;5071024;28;20048;-76
2023/11/26 06:00:38;;;;;;;5.28;3.47;;;;;;;-2.22;100.00;91209.44;5070255;28;20052;-75
2023/11/26 06:03:05;;;;;;;4.50;3.47;;;;;;;-2.19;100.00;91224.16;5072494;28;20059;-75
2023/11/26 06:05:34;;;;;;;4.25;2.85;;;;;;;-2.19;100.00;91221.63;5069281;28;20054;-76
2023/11/26 06:08:03;;;;;;;5.70;3.10;;;;;;;-2.85;100.00;91210.81;5071562;28;20044;-75
2023/11/26 06:10:30;;;;;;;5.22;3.08;;;;;;;-2.62;100.00;91229.97;5071846;28;20047;-76
2023/11/26 06:12:57;;;;;;;5.80;4.38;;;;;;;-2.38;100.00;91243.94;5069347;28;20071;-75
2023/11/26 06:15:25;;;;;;;5.38;3.53;;;;;;;-2.25;100.00;91263.38;5070762;28;20047;-74
2023/11/26 06:17:52;;;;;;;8.38;5.75;;;;;;;-2.36;100.00;91276.44;5070358;28;20045;-74
2023/11/26 06:20:18;;;;;;;4.95;3.53;;;;;;;-2.19;100.00;91282.78;5071906;28;20047;-74
2023/11/26 06:22:45;;;;;;;4.32;3.92;;;;;;;-2.05;100.00;91280.38;5071191;28;20048;-75
2023/11/26 06:25:14;;;;;;;7.07;4.75;;;;;;;-1.95;100.00;91290.91;5070100;28;20519;-74
2023/11/26 06:27:41;;;;;;;7.30;4.68;;;;;;;-1.97;100.00;91292.84;5070719;28;20572;-74
2023/11/26 06:30:09;;;;;;;6.82;4.35;;;;;;;-2.12;100.00;91315.56;5070402;28;20083;-74
2023/11/26 06:32:37;;;;;;;5.45;3.53;;;;;;;-2.35;100.00;91326.56;5068737;28;20052;-73
2023/11/26 06:35:05;;;;;;;4.65;3.42;;;;;;;-2.40;100.00;91338.09;5070017;28;20710;-74
2023/11/26 06:37:32;;;;;;;4.97;3.40;;;;;;;-2.50;100.00;91334.13;5071746;28;20486;-73
2023/11/26 06:39:59;;;;;;;7.05;4.38;;;;;;;-2.34;100.00;91340.69;5076048;28;20039;-74
2023/11/26 06:42:27;;;;;;;5.65;3.72;;;;;;;-2.72;100.00;91349.16;5075071;28;20066;-73
2023/11/26 06:44:55;;;;;;;5.70;4.00;;;;;;;-2.55;100.00;91354.78;5070526;28;20047;-74
2023/11/26 06:47:22;;;;;;;5.72;4.10;;;;;;;-2.78;100.00;91356.63;5073904;28;20113;-74
2023/11/26 06:49:49;;;;;;;5.35;4.00;;;;;;;-2.82;100.00;91376.31;5067505;28;20044;-74
2023/11/26 06:52:16;;;;;;;6.50;4.25;;;;;;;-2.44;100.00;91373.63;5072328;28;20049;-74
2023/11/26 06:54:43;;;;;;;5.38;3.78;;;;;;;-2.58;100.00;91387.78;5072970;28;20048;-74
2023/11/26 06:57:10;;;;;;;6.03;4.47;;;;;;;-2.56;100.00;91380.06;5072641;28;20060;-74
2023/11/26 06:59:38;;;;;;;5.43;3.63;;;;;;;-2.85;100.00;91382.47;5072620;28;20164;-73
2023/11/26 07:02:08;;;;;;;6.22;4.30;;;;;;;-2.60;100.00;91399.00;5069552;28;20049;-74
2023/11/26 07:04:35;;;;;;;4.88;3.63;;;;;;;-2.81;100.00;91403.00;5070088;28;20056;-74
2023/11/26 07:07:02;;;;;;;7.60;4.50;;;;;;;-2.80;100.00;91417.09;5071881;28;20040;-74
2023/11/26 07:09:29;;;;;;;6.45;4.28;;;;;;;-2.64;100.00;91425.44;5072327;28;20045;-73
2023/11/26 07:11:56;;;;;;;6.97;5.63;;;;;;;-2.71;100.00;91402.72;5071525;28;20438;-74
2023/11/26 07:14:23;;;;;;;6.05;4.95;;;;;;;-2.60;100.00;91419.88;5070648;28;20068;-75
2023/11/26 07:16:54;;;;;;;6.47;3.92;;;;;;;-3.10;100.00;91404.53;5070837;28;20123;-74
2023/11/26 07:19:21;;;;;;;7.88;6.47;;;;;;;-2.74;100.00;91439.03;5071375;28;20048;-74
2023/11/26 07:21:48;;;;;;;7.13;5.35;;;;;;;-2.85;100.00;91441.97;5074026;28;20055;-73
2023/11/26 07:24:15;;;;;;;6.75;4.35;;;;;;;-2.84;100.00;91436.78;5072900;28;20115;-73
2023/11/26 07:26:42;;;;;;;6.35;3.78;;;;;;;-2.65;100.00;91459.81;5071331;28;20156;-73
2023/11/26 07:29:09;;;;;;;5.70;4.30;;;;;;;-2.69;100.00;91451.06;5071978;28;20564;-73
2023/11/26 07:31:36;;;;;;;7.38;4.43;;;;;;;-2.31;100.00;91483.66;5071881;28;20075;-73
2023/11/26 07:34:05;;;;;;;7.55;4.38;;;;;;;-2.60;100.00;91485.22;5071845;28;20059;-73
2023/11/26 07:36:32;;;;;;;5.93;4.18;;;;;;;-2.56;100.00;91490.69;5070236;28;20044;-72
2023/11/26 07:38:59;;;;;;;5.95;4.13;;;;;;;-2.32;100.00;91486.38;5072190;28;20048;-73
2023/11/26 07:41:27;;;;;;;5.82;4.50;;;;;;;-2.23;100.00;91494.59;5075212;28;20142;-73
2023/11/26 07:43:55;;;;;;;5.35;3.90;;;;;;;-2.29;100.00;91491.84;5073054;28;20044;-73
2023/11/26 07:46:24;;;;;;;8.05;4.65;;;;;;;-2.45;100.00;91495.28;5076960;28;20539;-73
2023/11/26 07:48:51;;;;;;;4.80;3.42;;;;;;;-2.53;100.00;91530.59;5072152;28;20048;-72
2023/11/26 07:51:19;;;;;;;6.03;4.30;;;;;;;-2.69;100.00;91519.72;5072516;28;20040;-73
2023/11/26 07:53:46;;;;;;;5.63;3.90;;;;;;;-2.42;100.00;91540.22;5069440;28;20520;-73
2023/11/26 07:56:13;;;;;;;5.85;3.75;;;;;;;-2.16;100.00;91544.03;5071538;28;20044;-73
2023/11/26 07:58:41;;;;;;;6.13;4.15;;;;;;;-2.33;100.00;91547.66;5074276;28;20048;-73
2023/11/26 08:01:08;;;;;;;5.55;4.07;;;;;;;-2.35;100.00;91554.59;5071779;28;20044;-73
2023/11/26 08:03:35;;;;;;;6.40;4.45;;;;;;;-2.50;100.00;91520.16;5074226;28;20605;-73
2023/11/26 08:06:03;;;;;;;6.53;4.63;;;;;;;-2.19;100.00;91553.66;5071983;28;20044;-73
2023/11/26 08:08:36;;;;;;;5.80;4.32;;;;;;;-2.34;100.00;91536.03;5074006;28;20456;-74
2023/11/26 08:11:05;;;;;;;5.35;4.30;;;;;;;-2.62;100.00;91575.13;5071517;28;20055;-73
2023/11/26 08:13:35;;;;;;;6.80;5.15;;;;;;;-2.17;100.00;91577.69;5075585;28;20830;-73
2023/11/26 08:16:07;;;;;;;7.40;4.65;;;;;;;-2.15;100.00;91575.78;5074735;28;20047;-74
2023/11/26 08:18:35;;;;;;;6.70;4.63;;;;;;;-2.10;100.00;91582.81;5075369;28;20044;-72
2023/11/26 08:21:05;;;;;;;7.82;4.65;;;;;;;-1.91;100.00;91595.81;5074639;28;20044;-74
2023/11/26 08:23:34;;;;;;;7.53;4.65;;;;;;;-1.58;100.00;91605.53;5074414;28;20040;-73
2023/11/26 08:26:02;;;;;;;6.30;4.50;;;;;;;-1.67;100.00;91614.16;5072765;28;20044;-74
2023/11/26 08:28:28;;;;;;;6.43;4.38;;;;;;;-1.38;100.00;91620.09;5073664;28;20052;-73
2023/11/26 08:30:56;;;;;;;6.05;4.35;;;;;;;-2.19;100.00;91572.06;5072627;28;20145;-73
2023/11/26 08:33:25;;;;;;;5.30;4.07;;;;;;;-1.61;100.00;91643.66;5069612;28;20044;-73
2023/11/26 08:35:57;;;;;;;6.47;4.22;;;;;;;-2.07;100.00;91647.91;5070820;28;20052;-73
2023/11/26 08:38:24;;;;;;;7.80;4.50;;;;;;;-2.16;100.00;91656.47;5075669;28;20048;-73
2023/11/26 08:40:54;;;;;;;7.60;4.72;;;;;;;-1.92;100.00;91657.19;5077145;28;20520;-73
2023/11/26 08:43:22;;;;;;;6.93;4.80;;;;;;;-1.74;100.00;91659.38;5071671;28;20127;-73
2023/11/26 08:45:51;;;;;;;6.38;4.75;;;;;;;-1.94;100.00;91674.97;5071017;28;20422;-73
2023/11/26 08:48:18;;;;;;;7.60;4.80;;;;;;;-2.03;100.00;91648.31;5070743;28;20049;-73
2023/11/26 08:50:45;;;;;;;6.15;4.97;;;;;;;-1.79;100.00;91669.16;5074038;28;20049;-73
2023/11/26 08:53:13;;;;;;;7.47;4.60;;;;;;;-1.93;100.00;91689.13;5071890;28;20106;-73
2023/11/26 08:55:40;;;;;;;6.40;5.00;;;;;;;-1.90;100.00;91688.78;5074226;28;20059;-73
2023/11/26 08:58:08;;;;;;;6.13;4.95;;;;;;;-1.78;100.00;91690.88;5070164;28;20048;-73
2023/11/26 09:00:35;;;;;;;7.35;4.88;;;;;;;-1.84;100.00;91702.41;5069826;28;20048;-73
2023/11/26 09:03:02;;;;;;;5.85;4.47;;;;;;;-2.09;100.00;91701.84;5079413;28;20421;-73
2023/11/26 09:05:29;;;;;;;6.15;4.65;;;;;;;-2.18;100.00;91703.66;5070869;28;20059;-73
2023/11/26 09:07:56;;;;;;;6.65;4.55;;;;;;;-1.89;100.00;91702.91;5070647;28;20058;-73
2023/11/26 09:10:23;;;;;;;6.00;4.28;;;;;;;-1.97;100.00;91713.06;5070084;28;20044;-73
2023/11/26 09:12:50;;;;;;;5.63;4.60;;;;;;;-1.71;100.00;91726.22;5074445;28;20045;-73
2023/11/26 09:15:18;;;;;;;5.90;4.35;;;;;;;-2.03;100.00;91723.81;5081772;28;20048;-73
2023/11/26 09:17:45;;;;;;;5.88;4.18;;;;;;;-2.15;100.00;91720.91;5071027;28;20049;-73
2023/11/26 09:20:18;;;;;;;6.35;4.00;;;;;;;-1.98;100.00;91695.63;5069556;28;20130;-73
2023/11/26 09:22:48;;;;;;;5.28;4.13;;;;;;;-1.95;100.00;91728.00;5078523;28;20052;-73
2023/11/26 09:25:15;;;;;;;6.47;4.20;;;;;;;-1.80;100.00;91738.09;5069055;28;20044;-73
2023/11/26 09:27:43;;;;;;;4.85;3.85;;;;;;;-1.75;100.00;91740.88;5073771;28;20052;-73
2023/11/26 09:30:11;;;;;;;4.53;3.72;;;;;;;-1.76;100.00;91740.09;5083418;28;20222;-73
2023/11/26 09:32:41;;;;;;;8.13;4.13;;;;;;;-1.71;100.00;91719.41;5075922;28;20052;-73
2023/11/26 09:35:08;;;;;;;5.93;4.00;;;;;;;-1.15;100.00;91750.19;5069448;28;20055;-73
2023/11/26 09:37:35;;;;;;;6.50;4.25;;;;;;;-1.17;100.00;91754.66;5078812;28;20045;-73
2023/11/26 09:40:02;;;;;;;10.10;4.47;;;;;;;-1.33;100.00;91770.69;5075649;28;20063;-75
2023/11/26 09:42:29;;;;;;;6.93;4.28;;;;;;;-1.05;100.00;91760.00;5084035;28;20048;-81
2023/11/26 09:44:56;;;;;;;17.88;11.48;;;;;;;-0.86;100.00;91746.06;5071487;28;20045;-81
2023/11/26 09:47:24;;;;;;;8.88;5.45;;;;;;;-0.78;100.00;91766.16;5079438;28;20052;-75
2023/11/26 09:49:52;;;;;;;8.55;4.55;;;;;;;-1.31;100.00;91754.44;5071381;28;20528;-74
2023/11/26 09:52:22;;;;;;;11.23;5.60;;;;;;;-0.95;100.00;91771.41;5069456;28;20056;-75
2023/11/26 09:54:50;;;;;;;9.73;5.50;;;;;;;-0.49;100.00;91756.97;5069776;28;20048;-74
2023/11/26 09:57:17;;;;;;;13.23;6.57;;;;;;;-0.01;100.00;91768.28;5068745;28;20467;-76
2023/11/26 09:59:44;;;;;;;13.07;8.10;;;;;;;0.24;100.00;91772.97;5067726;28;20825;-75
2023/11/26 10:02:11;;;;;;;9.07;6.10;;;;;;;0.34;100.00;91777.69;5069027;28;20059;-75
2023/11/26 10:04:48;;;;;;;21.25;14.50;;;;;;;0.65;100.00;91781.63;5068961;28;20059;-75
2023/11/26 10:07:34;;;;;;;23.50;13.63;;;;;;;0.73;100.00;91765.50;5068526;28;20068;-75
2023/11/26 10:10:03;;;;;;;49.10;31.15;;;;;;;1.06;100.00;91788.44;5083033;28;20052;-75
2023/11/26 10:12:32;;;;;;;20.73;11.88;;;;;;;1.12;100.00;91788.66;5069038;28;20131;-74
2023/11/26 10:15:07;;;;;;;17.92;13.63;;;;;;;1.22;100.00;91798.44;5069160;28;20048;-75
2023/11/26 10:17:36;;;;;;;17.27;12.40;;;;;;;1.22;100.00;91801.75;5070720;28;20051;-74
2023/11/26 10:20:19;;;;;;;12.68;8.27;;;;;;;1.36;100.00;91800.06;5078014;28;20048;-74
2023/11/26 10:22:48;;;;;;;13.93;9.10;;;;;;;1.48;100.00;91814.72;5070260;28;20423;-74
2023/11/26 10:25:15;;;;;;;15.82;8.90;;;;;;;1.28;100.00;91807.81;5075151;28;20058;-75
2023/11/26 10:27:43;;;;;;;10.63;6.63;;;;;;;1.14;100.00;91814.53;5074700;28;20044;-74
2023/11/26 10:30:23;;;;;;;8.30;5.18;;;;;;;0.99;100.00;91809.59;5068865;28;20192;-75
2023/11/26 10:32:56;;;;;;;8.00;6.15;;;;;;;0.96;100.00;91813.28;5074194;28;20040;-75
2023/11/26 10:35:24;;;;;;;8.18;4.97;;;;;;;0.79;100.00;91818.63;5068661;28;20053;-74
2023/11/26 10:38:08;;;;;;;7.03;5.20;;;;;;;0.41;100.00;91834.09;5070496;28;20055;-74
2023/11/26 10:40:35;;;;;;;10.68;5.10;;;;;;;0.49;100.00;91825.59;5074914;28;20053;-74
2023/11/26 10:43:04;;;;;;;6.28;3.63;;;;;;;0.30;98.92;91835.38;5080633;28;20044;-74
2023/11/26 10:45:33;;;;;;;6.18;4.00;;;;;;;0.19;100.00;91829.03;5072588;28;20452;-75
2023/11/26 10:48:08;;;;;;;7.05;4.43;;;;;;;0.31;100.00;91841.19;5076807;28;20171;-74
2023/11/26 10:50:41;;;;;;;8.32;5.20;;;;;;;0.39;100.00;91838.56;5076730;28;20113;-74
2023/11/26 10:53:29;;;;;;;7.45;5.10;;;;;;;0.69;100.00;91838.38;5067739;28;20044;-74
2023/11/26 10:55:59;;;;;;;8.10;5.10;;;;;;;0.65;100.00;91844.78;5075283;28;20137;-74
2023/11/26 10:58:28;;;;;;;8.23;4.80;;;;;;;0.29;100.00;91845.66;5080128;28;20470;-74
2023/11/26 11:00:58;;;;;;;8.30;4.53;;;;;;;0.22;100.00;91853.94;5066965;28;20155;-74
2023/11/26 11:03:27;;;;;;;7.22;4.70;;;;;;;0.20;100.00;91852.56;5067885;28;20060;-74
2023/11/26 11:05:57;;;;;;;8.77;5.47;;;;;;;-0.03;100.00;91863.59;5067956;28;20563;-74
2023/11/26 11:08:25;;;;;;;8.65;4.80;;;;;;;-0.16;100.00;91879.38;5067201;28;20055;-74
2023/11/26 11:11:06;;;;;;;10.05;5.70;;;;;;;-0.45;100.00;91875.94;5067091;28;20044;-74
2023/11/26 11:13:35;;;;;;;8.57;5.82;;;;;;;-0.04;100.00;91879.72;5069769;28;20342;-73
2023/11/26 11:16:02;;;;;;;6.90;4.15;;;;;;;-0.11;100.00;91879.63;5067489;28;20041;-74
2023/11/26 11:18:44;;;;;;;7.38;4.57;;;;;;;-0.22;100.00;91893.50;5071237;28;20061;-74
2023/11/26 11:21:12;;;;;;;9.60;5.40;;;;;;;-0.10;100.00;91883.72;5067409;28;20127;-74
2023/11/26 11:23:42;;;;;;;9.85;5.78;;;;;;;0.03;100.00;91888.13;5067634;28;20083;-74
2023/11/26 11:26:11;;;;;;;13.80;7.32;;;;;;;0.23;100.00;91911.06;5066673;28;20053;-74
2023/11/26 11:28:40;;;;;;;11.60;7.50;;;;;;;0.38;100.00;91908.47;5069133;28;20521;-73
2023/11/26 11:31:09;;;;;;;12.07;7.55;;;;;;;0.13;100.00;91916.41;5066979;28;20530;-74